createdAt,value
2023-03-21T00:02:27.433Z,9.34
2023-03-21T00:05:32.348Z,9.27
2023-03-21T00:08:35.758Z,9.16
2023-03-21T00:11:38.706Z,9.13
2023-03-21T00:14:41.729Z,9.09
2023-03-21T00:17:46.010Z,9.09
2023-03-21T00:24:25.437Z,9.07
2023-03-21T00:27:49.883Z,9.04
2023-03-21T00:30:57.602Z,9.09
2023-03-21T00:34:02.440Z,9.06
2023-03-21T00:37:08.931Z,9.07
2023-03-21T00:40:25.449Z,9.07
2023-03-21T00:43:31.503Z,9.07
2023-03-21T00:46:44.077Z,9.05
2023-03-21T00:49:52.629Z,9.02
2023-03-21T00:52:57.359Z,9.02
2023-03-21T00:56:01.199Z,9.04
2023-03-21T00:59:04.282Z,9.08
2023-03-21T01:02:07.706Z,9.09
2023-03-21T01:05:12.639Z,9.03
2023-03-21T01:08:26.826Z,9.03
2023-03-21T01:11:32.707Z,8.95
2023-03-21T01:14:36.393Z,9.06
2023-03-21T01:17:39.386Z,8.96
2023-03-21T01:20:43.374Z,9.00
2023-03-21T01:23:48.722Z,8.96
2023-03-21T01:26:52.252Z,8.91
2023-03-21T01:29:55.374Z,8.90
2023-03-21T01:32:58.798Z,8.80
2023-03-21T01:36:12.279Z,8.68
2023-03-21T01:39:17.764Z,8.79
2023-03-21T01:42:23.498Z,8.77
2023-03-21T01:46:40.343Z,8.75
2023-03-21T01:50:10.708Z,8.65
2023-03-21T01:53:22.048Z,8.67
2023-03-21T01:56:30.707Z,8.74
2023-03-21T01:59:46.625Z,8.75
2023-03-21T02:03:15.228Z,8.79
2023-03-21T02:06:43.806Z,8.82
2023-03-21T02:09:59.173Z,8.77
2023-03-21T02:13:09.573Z,8.77
2023-03-21T02:16:26.627Z,8.70
2023-03-21T02:20:25.384Z,8.70
2023-03-21T02:24:07.325Z,8.63
2023-03-21T02:27:15.724Z,8.66
2023-03-21T02:30:51.981Z,8.64
2023-03-21T02:34:42.799Z,8.57
2023-03-21T02:37:59.947Z,8.59
2023-03-21T02:41:18.313Z,8.49
2023-03-21T02:44:31.969Z,8.49
2023-03-21T02:47:39.184Z,8.48
2023-03-21T02:50:48.137Z,8.51
2023-03-21T02:54:26.527Z,8.45
2023-03-21T02:57:31.421Z,8.47
2023-03-21T03:00:43.365Z,8.52
2023-03-21T03:03:47.955Z,8.54
2023-03-21T03:07:11.416Z,8.56
2023-03-21T03:10:32.024Z,8.54
2023-03-21T03:13:54.990Z,8.48
2023-03-21T03:17:14.400Z,8.42
2023-03-21T03:20:31.592Z,8.41
2023-03-21T03:23:44.371Z,8.45
2023-03-21T03:26:57.444Z,8.41
2023-03-21T03:30:05.323Z,8.42
2023-03-21T03:33:11.566Z,8.35
2023-03-21T03:36:33.601Z,8.35
2023-03-21T03:39:49.356Z,8.23
2023-03-21T03:42:55.970Z,8.21
2023-03-21T03:46:13.109Z,8.22
2023-03-21T03:49:22.503Z,8.16
2023-03-21T03:52:31.589Z,8.11
2023-03-21T03:55:44.973Z,8.16
2023-03-21T03:58:58.734Z,8.20
2023-03-21T04:02:20.158Z,8.24
2023-03-21T04:05:24.488Z,8.10
2023-03-21T04:08:28.878Z,8.10
2023-03-21T04:11:34.169Z,8.03
2023-03-21T04:14:44.448Z,7.98
2023-03-21T04:17:48.207Z,8.04
2023-03-21T04:20:52.532Z,8.02
2023-03-21T04:23:55.684Z,8.09
2023-03-21T04:26:58.779Z,8.18
2023-03-21T04:30:19.683Z,8.18
2023-03-21T04:33:27.554Z,8.24
2023-03-21T04:36:39.073Z,8.30
2023-03-21T04:39:44.064Z,8.26
2023-03-21T04:42:48.426Z,8.16
2023-03-21T04:45:52.960Z,8.15
2023-03-21T04:48:56.391Z,8.16
2023-03-21T04:52:01.783Z,8.07
2023-03-21T04:55:05.811Z,8.10
2023-03-21T04:58:09.043Z,8.12
2023-03-21T05:01:14.807Z,8.14
2023-03-21T05:04:18.761Z,8.17
2023-03-21T05:07:27.678Z,8.20
2023-03-21T05:10:31.395Z,8.19
2023-03-21T05:13:34.981Z,8.23
2023-03-21T05:16:48.315Z,8.21
2023-03-21T05:19:53.161Z,8.16
2023-03-21T05:22:56.378Z,8.09
2023-03-21T05:26:00.684Z,8.15
2023-03-21T05:29:20.315Z,8.24
2023-03-21T05:32:34.303Z,8.29
2023-03-21T05:35:37.562Z,8.26
2023-03-21T05:38:46.509Z,8.27
2023-03-21T05:41:50.470Z,8.27
2023-03-21T05:44:53.631Z,8.32
2023-03-21T05:48:03.448Z,8.33
2023-03-21T05:51:14.796Z,8.30
2023-03-21T05:54:17.946Z,8.31
2023-03-21T05:57:27.973Z,8.30
2023-03-21T06:00:39.743Z,8.14
2023-03-21T06:03:54.883Z,8.18
2023-03-21T06:07:00.393Z,8.25
2023-03-21T06:10:05.977Z,8.24
2023-03-21T06:13:09.577Z,8.29
2023-03-21T06:16:13.008Z,8.24
2023-03-21T06:19:18.148Z,8.37
2023-03-21T06:22:36.674Z,8.37
2023-03-21T06:25:40.396Z,8.41
2023-03-21T06:28:43.802Z,8.45
2023-03-21T06:31:47.057Z,8.47
2023-03-21T06:34:51.463Z,8.45
2023-03-21T06:37:54.656Z,8.47
2023-03-21T06:40:58.852Z,8.40
2023-03-21T06:44:05.381Z,8.41
2023-03-21T06:47:14.891Z,8.37
2023-03-21T06:50:21.284Z,8.40
2023-03-21T06:53:27.362Z,8.39
2023-03-21T06:56:49.102Z,8.46
2023-03-21T06:59:59.124Z,8.52
2023-03-21T07:03:02.897Z,8.49
2023-03-21T07:06:11.806Z,8.55
2023-03-21T07:09:19.374Z,8.58
2023-03-21T07:12:24.365Z,8.56
2023-03-21T07:15:46.046Z,8.56
2023-03-21T07:18:49.738Z,8.54
2023-03-21T07:21:54.110Z,8.59
2023-03-21T07:25:05.033Z,8.53
2023-03-21T07:28:13.985Z,8.51
2023-03-21T07:31:19.687Z,8.42
2023-03-21T07:34:24.741Z,8.46
2023-03-21T07:37:29.064Z,8.47
2023-03-21T07:40:33.288Z,8.53
2023-03-21T07:43:38.384Z,8.47
2023-03-21T07:46:45.961Z,8.58
2023-03-21T07:49:48.984Z,8.54
2023-03-21T07:52:53.913Z,8.51
2023-03-21T07:55:57.066Z,8.45
2023-03-21T07:59:00.255Z,8.51
2023-03-21T08:02:03.248Z,8.55
2023-03-21T08:05:06.985Z,8.51
2023-03-21T08:08:11.480Z,8.51
2023-03-21T08:11:18.048Z,8.58
2023-03-21T08:14:24.326Z,8.51
2023-03-21T08:17:27.462Z,8.64
2023-03-21T08:20:30.477Z,8.70
2023-03-21T08:23:35.050Z,8.72
2023-03-21T08:26:38.178Z,8.78
2023-03-21T08:29:42.353Z,8.83
2023-03-21T08:32:45.675Z,8.86
2023-03-21T08:35:49.418Z,8.91
2023-03-21T08:38:57.044Z,8.94
2023-03-21T08:42:00.237Z,8.95
2023-03-21T08:45:04.883Z,8.97
2023-03-21T08:48:14.737Z,9.05
2023-03-21T08:51:18.199Z,9.18
2023-03-21T08:54:24.404Z,9.26
2023-03-21T08:57:27.391Z,9.20
2023-03-21T09:00:30.867Z,9.29
2023-03-21T09:03:33.943Z,9.31
2023-03-21T09:06:37.052Z,9.44
2023-03-21T09:09:42.234Z,9.39
2023-03-21T09:12:45.567Z,9.33
2023-03-21T09:15:48.502Z,9.34
2023-03-21T09:18:57.044Z,9.21
2023-03-21T09:22:00.535Z,9.25
2023-03-21T09:25:07.503Z,9.35
2023-03-21T09:28:12.176Z,9.32
2023-03-21T09:31:16.931Z,9.41
2023-03-21T09:34:20.021Z,9.44
2023-03-21T09:37:23.113Z,9.53
2023-03-21T09:40:49.242Z,9.44
2023-03-21T09:44:10.665Z,9.43
2023-03-21T09:47:21.592Z,9.47
2023-03-21T09:50:37.715Z,9.43
2023-03-21T09:53:43.661Z,9.48
2023-03-21T09:56:49.050Z,9.59
2023-03-21T09:59:54.748Z,9.65
2023-03-21T10:03:01.686Z,9.65
2023-03-21T10:06:11.300Z,9.58
2023-03-21T10:09:24.371Z,9.70
2023-03-21T10:12:30.628Z,9.80
2023-03-21T10:15:33.652Z,9.82
2023-03-21T10:18:39.243Z,9.94
2023-03-21T10:22:03.477Z,10.03
2023-03-21T10:25:08.840Z,10.09
2023-03-21T10:28:18.686Z,10.10
2023-03-21T10:31:26.146Z,10.02
2023-03-21T10:34:34.283Z,10.14
2023-03-21T10:37:37.246Z,10.20
2023-03-21T10:40:40.658Z,10.25
2023-03-21T10:43:45.916Z,10.27
2023-03-21T10:46:55.187Z,10.36
2023-03-21T10:50:08.040Z,10.40
2023-03-21T10:53:20.317Z,10.35
2023-03-21T10:56:29.507Z,10.48
2023-03-21T10:59:40.592Z,10.50
2023-03-21T11:02:44.199Z,10.49
2023-03-21T11:05:47.701Z,10.59
2023-03-21T11:08:55.940Z,10.68
2023-03-21T11:12:05.859Z,10.75
2023-03-21T11:15:32.022Z,10.85
2023-03-21T11:18:44.747Z,10.83
2023-03-21T11:21:48.273Z,10.80
2023-03-21T11:24:57.741Z,10.88
2023-03-21T11:28:07.444Z,10.89
2023-03-21T11:31:14.684Z,10.98
2023-03-21T11:34:28.159Z,10.95
2023-03-21T11:37:36.410Z,10.88
2023-03-21T11:40:53.878Z,10.86
2023-03-21T11:43:58.100Z,10.81
2023-03-21T11:47:03.762Z,10.96
2023-03-21T11:50:22.011Z,10.97
2023-03-21T11:53:39.599Z,11.12
2023-03-21T11:56:48.422Z,11.21
2023-03-21T12:00:06.092Z,11.29
2023-03-21T12:03:49.099Z,11.22
2023-03-21T12:06:57.426Z,11.24
2023-03-21T12:10:22.857Z,11.29
2023-03-21T12:13:41.512Z,11.24
2023-03-21T12:16:57.008Z,11.27
2023-03-21T12:20:43.083Z,11.28
2023-03-21T12:24:02.102Z,11.47
2023-03-21T12:27:12.729Z,11.48
2023-03-21T12:30:34.673Z,11.39
2023-03-21T12:33:59.092Z,11.41
2023-03-21T12:37:18.788Z,11.40
2023-03-21T12:40:37.454Z,11.42
2023-03-21T12:43:46.715Z,11.51
2023-03-21T12:46:56.378Z,11.55
2023-03-21T12:50:09.496Z,11.57
2023-03-21T12:53:31.035Z,11.68
2023-03-21T12:56:40.509Z,11.78
2023-03-21T12:59:50.748Z,11.79
2023-03-21T13:02:58.284Z,11.70
2023-03-21T13:06:05.602Z,11.75
2023-03-21T13:09:21.237Z,11.78
2023-03-21T13:12:46.319Z,11.89
2023-03-21T13:16:01.783Z,11.96
2023-03-21T13:19:18.113Z,11.93
2023-03-21T13:22:27.681Z,12.04
2023-03-21T13:25:34.029Z,12.00
2023-03-21T13:28:39.972Z,11.99
2023-03-21T13:31:52.458Z,12.02
2023-03-21T13:34:58.332Z,12.05
2023-03-21T13:38:08.952Z,12.04
2023-03-21T13:41:17.234Z,12.09
2023-03-21T13:44:34.329Z,11.97
2023-03-21T13:47:43.395Z,11.94
2023-03-21T13:50:55.636Z,11.95
2023-03-21T13:54:02.249Z,11.99
2023-03-21T13:57:07.661Z,11.99
2023-03-21T14:00:23.525Z,12.03
2023-03-21T14:03:27.024Z,12.04
2023-03-21T14:06:38.856Z,12.08
2023-03-21T14:09:46.651Z,12.00
2023-03-21T14:12:52.268Z,12.01
2023-03-21T14:16:16.027Z,11.92
2023-03-21T14:19:19.271Z,11.90
2023-03-21T14:22:22.660Z,11.92
2023-03-21T14:25:37.126Z,11.77
2023-03-21T14:28:52.426Z,11.88
2023-03-21T14:31:56.196Z,11.77
2023-03-21T14:35:03.730Z,11.69
2023-03-21T14:38:09.341Z,11.70
2023-03-21T14:41:24.413Z,11.76
2023-03-21T14:44:44.114Z,11.79
2023-03-21T14:47:59.532Z,11.88
2023-03-21T14:51:04.816Z,11.92
2023-03-21T14:54:08.019Z,11.99
2023-03-21T14:57:16.611Z,12.17
2023-03-21T15:00:26.645Z,12.09
2023-03-21T15:03:29.721Z,12.10
2023-03-21T15:06:32.819Z,12.16
2023-03-21T15:09:36.587Z,12.17
2023-03-21T15:12:39.770Z,12.24
2023-03-21T15:15:44.876Z,12.23
2023-03-21T15:18:48.555Z,12.24
2023-03-21T15:21:56.963Z,12.23
2023-03-21T15:25:05.014Z,12.27
2023-03-21T15:28:08.134Z,12.33
2023-03-21T15:31:19.173Z,12.38
2023-03-21T15:34:26.317Z,12.42
2023-03-21T15:37:35.477Z,12.41
2023-03-21T15:40:39.029Z,12.37
2023-03-21T15:43:42.271Z,12.40
2023-03-21T15:46:48.903Z,12.45
2023-03-21T15:49:55.864Z,12.50
2023-03-21T15:53:02.727Z,12.49
2023-03-21T15:56:16.528Z,12.55
2023-03-21T15:59:20.484Z,12.62
2023-03-21T16:02:31.641Z,12.59
2023-03-21T16:05:35.626Z,12.61
2023-03-21T16:08:45.963Z,12.61
2023-03-21T16:11:52.234Z,12.53
2023-03-21T16:14:56.286Z,12.52
2023-03-21T16:18:04.379Z,12.49
2023-03-21T16:21:07.700Z,12.45
2023-03-21T16:24:12.561Z,12.43
2023-03-21T16:27:22.914Z,12.41
2023-03-21T16:30:28.647Z,12.44
2023-03-21T16:33:33.005Z,12.39
2023-03-21T16:36:40.260Z,12.37
2023-03-21T16:39:44.171Z,12.29
2023-03-21T16:42:47.148Z,12.31
2023-03-21T16:45:50.170Z,12.33
2023-03-21T16:48:57.774Z,12.31
2023-03-21T16:52:01.317Z,12.32
2023-03-21T16:55:05.719Z,12.31
2023-03-21T16:58:08.858Z,12.27
2023-03-21T17:01:16.260Z,12.26
2023-03-21T17:04:20.578Z,12.21
2023-03-21T17:07:23.551Z,12.24
2023-03-21T17:10:30.161Z,12.24
2023-03-21T17:13:33.413Z,12.21
2023-03-21T17:16:45.774Z,12.21
2023-03-21T17:19:50.135Z,12.16
2023-03-21T17:22:53.420Z,12.19
2023-03-21T17:26:00.119Z,12.18
2023-03-21T17:29:04.111Z,12.18
2023-03-21T17:32:07.186Z,12.16
2023-03-21T17:35:11.705Z,12.16
2023-03-21T17:38:18.440Z,12.12
2023-03-21T17:41:23.701Z,12.16
2023-03-21T17:44:27.146Z,12.16
2023-03-21T17:47:32.424Z,12.10
2023-03-21T17:50:37.894Z,12.07
2023-03-21T17:53:41.758Z,12.08
2023-03-21T17:56:44.740Z,12.06
2023-03-21T17:59:47.692Z,12.06
2023-03-21T18:02:51.814Z,12.05
2023-03-21T18:05:56.083Z,12.04
2023-03-21T18:09:00.342Z,12.03
2023-03-21T18:12:03.365Z,11.98
2023-03-21T18:15:14.008Z,12.03
2023-03-21T18:18:18.395Z,12.03
2023-03-21T18:21:26.220Z,11.99
2023-03-21T18:24:31.844Z,11.98
2023-03-21T18:27:36.646Z,11.95
2023-03-21T18:31:07.722Z,11.91
2023-03-21T18:34:13.429Z,11.90
2023-03-21T18:37:18.333Z,11.88
2023-03-21T18:40:23.989Z,11.86
2023-03-21T18:46:52.379Z,11.86
2023-03-21T18:50:14.386Z,11.84
2023-03-21T18:53:19.185Z,11.88
2023-03-21T18:57:13.178Z,11.86
2023-03-21T18:59:45.568Z,11.87
2023-03-21T19:02:52.425Z,11.86
2023-03-21T19:05:59.623Z,11.83
2023-03-21T19:09:14.324Z,11.83
2023-03-21T19:12:18.786Z,11.81
2023-03-21T19:15:24.123Z,11.79
2023-03-21T19:18:49.558Z,11.73
2023-03-21T19:21:51.308Z,11.75
2023-03-21T19:24:55.935Z,11.75
2023-03-21T19:27:58.891Z,11.76
2023-03-21T19:31:06.152Z,11.79
2023-03-21T19:34:09.242Z,11.73
2023-03-21T19:37:12.298Z,11.65
2023-03-21T19:40:20.029Z,11.64
2023-03-21T19:43:32.810Z,11.56
2023-03-21T19:46:37.165Z,11.57
2023-03-21T19:50:34.520Z,11.53
2023-03-21T19:53:05.384Z,11.43
2023-03-21T19:56:20.699Z,11.44
2023-03-21T19:59:25.958Z,11.48
2023-03-21T20:02:36.584Z,11.47
2023-03-21T20:05:47.407Z,11.43
2023-03-21T20:09:27.586Z,11.40
2023-03-21T20:12:16.011Z,11.36
2023-03-21T20:15:21.685Z,11.36
2023-03-21T20:18:27.109Z,11.32
2023-03-21T20:21:36.912Z,11.27
2023-03-21T20:24:49.159Z,11.25
2023-03-21T20:28:12.715Z,11.25
2023-03-21T20:31:19.397Z,11.25
2023-03-21T20:34:23.183Z,11.23
2023-03-21T20:37:26.283Z,11.24
2023-03-21T20:40:30.210Z,11.19
2023-03-21T20:46:59.922Z,11.16
2023-03-21T20:50:03.116Z,11.14
2023-03-21T20:53:07.644Z,11.08
2023-03-21T20:56:10.806Z,11.02
2023-03-21T20:59:24.579Z,11.02
2023-03-21T21:02:29.394Z,11.03
2023-03-21T21:05:34.810Z,10.99
2023-03-21T21:08:38.689Z,10.98
2023-03-21T21:12:06.613Z,11.00
2023-03-21T21:15:09.266Z,10.93
2023-03-21T21:18:13.292Z,10.92
2023-03-21T21:21:17.555Z,10.90
2023-03-21T21:24:20.774Z,10.90
2023-03-21T21:27:24.390Z,10.92
2023-03-21T21:30:29.382Z,10.89
2023-03-21T21:33:34.217Z,10.89
2023-03-21T21:36:37.506Z,10.92
2023-03-21T21:39:41.946Z,10.93
2023-03-21T21:42:45.899Z,10.92
2023-03-21T21:45:50.833Z,10.88
2023-03-21T21:48:53.852Z,10.89
2023-03-21T21:51:59.681Z,10.85
2023-03-21T21:55:04.061Z,10.85
2023-03-21T21:58:08.474Z,10.79
2023-03-21T22:01:13.641Z,10.81
2023-03-21T22:04:18.018Z,10.83
2023-03-21T22:07:21.063Z,10.81
2023-03-21T22:10:27.181Z,10.74
2023-03-21T22:13:30.604Z,10.77
2023-03-21T22:16:35.200Z,10.79
2023-03-21T22:19:40.201Z,10.80
2023-03-21T22:22:43.783Z,10.70
2023-03-21T22:25:51.816Z,10.69
2023-03-21T22:28:54.905Z,10.70
2023-03-21T22:31:59.662Z,10.69
2023-03-21T22:35:03.205Z,10.62
2023-03-21T22:38:06.329Z,10.63
2023-03-21T22:41:09.853Z,10.55
2023-03-21T22:44:13.679Z,10.53
2023-03-21T22:47:18.407Z,10.51
2023-03-21T22:50:21.361Z,10.48
2023-03-21T22:53:24.404Z,10.47
2023-03-21T22:56:27.775Z,10.50
2023-03-21T22:59:31.060Z,10.54
2023-03-21T23:02:36.191Z,10.56
2023-03-21T23:05:40.460Z,10.55
2023-03-21T23:08:43.703Z,10.53
2023-03-21T23:11:49.498Z,10.50
2023-03-21T23:14:52.715Z,10.43
2023-03-21T23:17:57.196Z,10.39
2023-03-21T23:21:00.259Z,10.40
2023-03-21T23:24:03.850Z,10.40
2023-03-21T23:27:07.655Z,10.41
2023-03-21T23:30:11.359Z,10.43
2023-03-21T23:33:15.849Z,10.42
2023-03-21T23:36:21.036Z,10.40
2023-03-21T23:39:24.432Z,10.40
2023-03-21T23:42:30.275Z,10.42
2023-03-21T23:45:33.338Z,10.40
2023-03-21T23:48:37.873Z,10.35
2023-03-21T23:51:41.098Z,10.31
2023-03-21T23:54:46.700Z,10.26
2023-03-21T23:57:59.033Z,10.23
